Allyn, WA

5:06 AM PST on December 25, 2014 (GMT -0800)
Pickering Passage | Change Station
CLOSE
Current Station
Personal Weather Station
Location: Grapeview, WA
Elevation: 49 ft
Nearby Weather Stations

Elev 49 ft 47.29 °N, 122.89 °W | Updated 58 seconds ago

Overcast
Overcast
37.0 °F
Feels Like 37 °F
N
0.0
Wind Variable Wind from North
Gusts 1.0 mph

Today
High -- | Low -- °F
--% Chance of Precip.
Yesterday
High -- | Low -- °F
Precip. -- in
7:57 AM 4:25 PM
Waxing Crescent, 16% visible
Pressure 30.15 in
Visibility 0.5 miles
Clouds Overcast 200 ft
Windchill 37 °F
Dew Point 37 °F
Humidity 99%
Rainfall 0.00 in
Snow Depth Not available.
UV 0 out of 12
Pollen .50 out of 12
Air Quality Not available.
Flu Activity Not available.
METAR KPWT 251255Z AUTO 00000KT 1/2SM OVC002 02/02 A3015 RMK AO1

More Conditions Fewer Conditions

Pressure 30.15 in
Visibility 0.5 miles
Clouds Overcast 200 ft
Windchill 37 °F
Dew Point 37 °F
Humidity 99%
Rainfall 0.00 in
Snow Depth Not available.
UV 0 out of 12
Pollen .50 out of 12
Air Quality Not available.
Flu Activity Not available.
METAR KPWT 251255Z AUTO 00000KT 1/2SM OVC002 02/02 A3015 RMK AO1

More Conditions Fewer Conditions

10-Day Weather Forecast

Almanac

Astronomy

Dec. 25, 2014 Rise Set
Actual Time
Civil Twilight
Nautical Twilight
Astronomical Twilight
Moon
Length of Visible Light
Length of Day
Tomorrow will be .
, % of the Moon is Illuminated

Today's Extremes

State Highs State Lows

Community

WunderPhotos

Upload Photos

1,780,266 photos uploaded!

WunderBlogs® & News

Nearby

Air Quality

  Air Quality AQ Index Pollutant
Not available.

Snow Depth

Station Depth Elevation

Earthquake Activity

City Distance Mag. Time & Date
Minimum magnitude displayed is 2.5.

Coastal Water Temperatures

Place Temperature

Nearby Weather Stations